Schedule Details


Flight Number: CTN700
Departure: Franjo Tudman (LDZA) at 08:00
Arrival: Lisbon (LPPT) at 10:15
Route: KOTOR?UT742?NAKIT?UL615?ROTAR?DCT?BENUS?DCT?IVLOX?DCT?DORAV?DCT?BORDI?UZ185?KOLON?UM984?DIVKO?UN975?BGR?UQ47?ASTRO?UM985?YES?UN747?SVL?UM744?ROSAL?UZ227?EXONA

Weather Information
LDZA 151530Z VRB01KT CAVOK 26/14 Q1022 NOSIG
LPPT 151530Z 27007KT 210V320 CAVOK 30/13 Q1017
Schedule Frequency

Route Map